Terminal Aerodrome Forecast
Issued by NWS Charleston, WV

Home | Current Version | Previous Version | Text Only | Print | Product List | Glossary On
Versions: 1 2 3 4 5 6 7 8 9 10 11 12 13 14 15 16 17 18 19 20 21 22 23 24 25 26 27 28 29
000
FTUS41 KRLX 291100
TAFCRW
TAF
KCRW 291135Z 2912/3012 04003KT 4SM BR SCT002
      TEMPO 2912/2913 6SM BR BKN002
     FM291300 VRB03KT P6SM SCT050
     FM300300 14006KT P6SM SCT150
     FM300700 16005KT P6SM BKN090=

USA.gov is the U.S. government's official web portal to all federal, state and local government web resources and services.